sensor_id;sensor_type;location;lat;lon;timestamp;P1;durP1;ratioP1;P2;durP2;ratioP2
33279;SDS011;20403;43.114;12.434;2023-08-20T04:46:06;10.30;;;6.63;;
33279;SDS011;20403;43.114;12.434;2023-08-20T04:48:31;9.68;;;7.80;;
33279;SDS011;20403;43.114;12.434;2023-08-20T04:50:56;8.40;;;6.80;;
33279;SDS011;20403;43.114;12.434;2023-08-20T04:53:23;9.75;;;7.75;;
33279;SDS011;20403;43.114;12.434;2023-08-20T04:55:49;9.65;;;6.95;;
33279;SDS011;20403;43.114;12.434;2023-08-20T04:58:14;8.60;;;7.07;;
33279;SDS011;20403;43.114;12.434;2023-08-20T05:00:40;10.93;;;7.68;;
33279;SDS011;20403;43.114;12.434;2023-08-20T05:03:05;9.10;;;7.35;;
33279;SDS011;20403;43.114;12.434;2023-08-20T05:05:30;10.93;;;7.35;;
33279;SDS011;20403;43.114;12.434;2023-08-20T05:07:56;8.65;;;6.43;;
33279;SDS011;20403;43.114;12.434;2023-08-20T05:10:21;9.77;;;7.22;;
33279;SDS011;20403;43.114;12.434;2023-08-20T05:12:47;11.70;;;6.47;;
33279;SDS011;20403;43.114;12.434;2023-08-20T05:15:12;7.78;;;6.50;;
33279;SDS011;20403;43.114;12.434;2023-08-20T05:17:37;7.57;;;6.72;;
33279;SDS011;20403;43.114;12.434;2023-08-20T05:20:04;8.50;;;7.18;;
33279;SDS011;20403;43.114;12.434;2023-08-20T05:22:30;9.70;;;7.78;;
33279;SDS011;20403;43.114;12.434;2023-08-20T05:24:56;8.80;;;7.28;;
33279;SDS011;20403;43.114;12.434;2023-08-20T05:27:21;10.48;;;7.40;;
33279;SDS011;20403;43.114;12.434;2023-08-20T05:29:46;7.97;;;7.07;;
33279;SDS011;20403;43.114;12.434;2023-08-20T05:32:12;8.82;;;6.82;;
33279;SDS011;20403;43.114;12.434;2023-08-20T05:34:37;9.35;;;7.72;;
33279;SDS011;20403;43.114;12.434;2023-08-20T05:37:03;7.93;;;7.10;;
33279;SDS011;20403;43.114;12.434;2023-08-20T05:39:29;13.23;;;7.57;;
33279;SDS011;20403;43.114;12.434;2023-08-20T05:41:55;11.30;;;7.60;;
33279;SDS011;20403;43.114;12.434;2023-08-20T05:44:21;8.68;;;6.80;;
33279;SDS011;20403;43.114;12.434;2023-08-20T05:46:47;9.20;;;6.93;;
33279;SDS011;20403;43.114;12.434;2023-08-20T05:49:13;10.80;;;7.03;;
33279;SDS011;20403;43.114;12.434;2023-08-20T05:51:41;11.25;;;6.97;;
33279;SDS011;20403;43.114;12.434;2023-08-20T05:54:07;9.45;;;6.75;;
33279;SDS011;20403;43.114;12.434;2023-08-20T05:56:32;9.35;;;7.10;;
33279;SDS011;20403;43.114;12.434;2023-08-20T05:58:57;10.77;;;6.60;;
33279;SDS011;20403;43.114;12.434;2023-08-20T06:01:23;9.55;;;6.88;;
33279;SDS011;20403;43.114;12.434;2023-08-20T06:03:48;10.73;;;6.63;;
33279;SDS011;20403;43.114;12.434;2023-08-20T06:06:14;9.63;;;6.78;;
33279;SDS011;20403;43.114;12.434;2023-08-20T06:08:39;15.05;;;7.53;;
33279;SDS011;20403;43.114;12.434;2023-08-20T06:11:04;7.90;;;6.43;;
33279;SDS011;20403;43.114;12.434;2023-08-20T06:13:30;8.25;;;7.38;;
33279;SDS011;20403;43.114;12.434;2023-08-20T06:15:55;10.55;;;6.97;;
33279;SDS011;20403;43.114;12.434;2023-08-20T06:18:21;9.50;;;7.75;;
33279;SDS011;20403;43.114;12.434;2023-08-20T06:20:46;10.75;;;7.20;;
33279;SDS011;20403;43.114;12.434;2023-08-20T06:23:11;9.63;;;7.78;;
33279;SDS011;20403;43.114;12.434;2023-08-20T06:25:38;9.95;;;7.13;;
33279;SDS011;20403;43.114;12.434;2023-08-20T06:28:03;11.20;;;8.43;;
33279;SDS011;20403;43.114;12.434;2023-08-20T06:30:29;10.13;;;7.60;;
33279;SDS011;20403;43.114;12.434;2023-08-20T06:32:54;10.43;;;8.13;;
33279;SDS011;20403;43.114;12.434;2023-08-20T06:35:19;10.05;;;8.35;;
33279;SDS011;20403;43.114;12.434;2023-08-20T06:37:45;10.90;;;8.35;;
33279;SDS011;20403;43.114;12.434;2023-08-20T06:40:10;13.95;;;9.02;;
33279;SDS011;20403;43.114;12.434;2023-08-20T06:42:36;12.13;;;8.27;;
33279;SDS011;20403;43.114;12.434;2023-08-20T06:45:01;14.77;;;9.05;;
33279;SDS011;20403;43.114;12.434;2023-08-20T06:47:27;13.98;;;9.32;;
33279;SDS011;20403;43.114;12.434;2023-08-20T06:49:52;13.07;;;8.65;;
33279;SDS011;20403;43.114;12.434;2023-08-20T06:52:18;11.98;;;7.85;;
33279;SDS011;20403;43.114;12.434;2023-08-20T06:54:44;12.50;;;8.25;;
33279;SDS011;20403;43.114;12.434;2023-08-20T06:57:09;15.02;;;8.88;;
33279;SDS011;20403;43.114;12.434;2023-08-20T06:59:35;12.65;;;7.70;;
33279;SDS011;20403;43.114;12.434;2023-08-20T07:02:00;11.38;;;8.90;;
33279;SDS011;20403;43.114;12.434;2023-08-20T07:04:26;11.77;;;8.10;;
33279;SDS011;20403;43.114;12.434;2023-08-20T07:06:51;14.07;;;7.68;;
33279;SDS011;20403;43.114;12.434;2023-08-20T07:09:17;12.75;;;8.35;;
33279;SDS011;20403;43.114;12.434;2023-08-20T07:11:42;12.63;;;8.10;;
33279;SDS011;20403;43.114;12.434;2023-08-20T07:14:08;11.93;;;7.95;;
33279;SDS011;20403;43.114;12.434;2023-08-20T07:16:33;9.30;;;7.97;;
33279;SDS011;20403;43.114;12.434;2023-08-20T07:18:59;11.07;;;8.63;;
33279;SDS011;20403;43.114;12.434;2023-08-20T07:21:25;9.15;;;8.20;;
33279;SDS011;20403;43.114;12.434;2023-08-20T07:23:50;11.32;;;8.82;;
33279;SDS011;20403;43.114;12.434;2023-08-20T07:26:16;10.93;;;8.05;;
33279;SDS011;20403;43.114;12.434;2023-08-20T07:28:41;11.50;;;8.60;;
33279;SDS011;20403;43.114;12.434;2023-08-20T07:31:22;10.88;;;8.68;;
33279;SDS011;20403;43.114;12.434;2023-08-20T07:33:49;14.20;;;8.23;;
33279;SDS011;20403;43.114;12.434;2023-08-20T07:36:15;10.57;;;8.88;;
33279;SDS011;20403;43.114;12.434;2023-08-20T07:38:42;10.00;;;8.60;;
33279;SDS011;20403;43.114;12.434;2023-08-20T07:41:11;10.35;;;8.90;;
33279;SDS011;20403;43.114;12.434;2023-08-20T07:43:37;8.48;;;7.57;;
33279;SDS011;20403;43.114;12.434;2023-08-20T07:46:04;10.80;;;8.43;;
33279;SDS011;20403;43.114;12.434;2023-08-20T07:48:30;10.90;;;8.13;;
33279;SDS011;20403;43.114;12.434;2023-08-20T07:50:55;9.98;;;8.23;;
33279;SDS011;20403;43.114;12.434;2023-08-20T07:53:21;10.57;;;7.75;;
33279;SDS011;20403;43.114;12.434;2023-08-20T07:55:46;17.10;;;8.32;;
33279;SDS011;20403;43.114;12.434;2023-08-20T07:58:12;9.52;;;7.78;;
33279;SDS011;20403;43.114;12.434;2023-08-20T08:00:37;9.88;;;7.80;;
33279;SDS011;20403;43.114;12.434;2023-08-20T08:03:03;11.32;;;7.80;;
33279;SDS011;20403;43.114;12.434;2023-08-20T08:05:28;9.88;;;8.40;;
33279;SDS011;20403;43.114;12.434;2023-08-20T08:07:54;11.38;;;8.23;;
33279;SDS011;20403;43.114;12.434;2023-08-20T08:10:19;13.05;;;8.02;;
33279;SDS011;20403;43.114;12.434;2023-08-20T08:12:45;9.68;;;7.88;;
33279;SDS011;20403;43.114;12.434;2023-08-20T08:15:11;10.48;;;7.95;;
33279;SDS011;20403;43.114;12.434;2023-08-20T08:17:37;8.38;;;7.45;;
33279;SDS011;20403;43.114;12.434;2023-08-20T08:20:02;8.75;;;7.75;;
33279;SDS011;20403;43.114;12.434;2023-08-20T08:22:28;13.38;;;8.13;;
33279;SDS011;20403;43.114;12.434;2023-08-20T08:24:53;9.38;;;7.80;;
33279;SDS011;20403;43.114;12.434;2023-08-20T08:27:19;11.90;;;7.95;;
33279;SDS011;20403;43.114;12.434;2023-08-20T08:29:45;17.00;;;8.07;;
33279;SDS011;20403;43.114;12.434;2023-08-20T08:32:10;10.75;;;7.45;;
33279;SDS011;20403;43.114;12.434;2023-08-20T08:34:36;9.95;;;7.10;;
33279;SDS011;20403;43.114;12.434;2023-08-20T08:37:01;8.25;;;7.45;;
33279;SDS011;20403;43.114;12.434;2023-08-20T08:39:26;8.57;;;7.40;;
33279;SDS011;20403;43.114;12.434;2023-08-20T08:41:54;13.80;;;7.53;;
33279;SDS011;20403;43.114;12.434;2023-08-20T08:44:27;10.30;;;7.13;;
33279;SDS011;20403;43.114;12.434;2023-08-20T08:46:53;10.30;;;6.85;;
33279;SDS011;20403;43.114;12.434;2023-08-20T08:49:18;11.55;;;7.65;;
33279;SDS011;20403;43.114;12.434;2023-08-20T08:51:44;9.60;;;7.20;;
33279;SDS011;20403;43.114;12.434;2023-08-20T08:54:11;16.67;;;6.95;;
33279;SDS011;20403;43.114;12.434;2023-08-20T08:56:38;9.73;;;7.28;;
33279;SDS011;20403;43.114;12.434;2023-08-20T08:59:04;10.60;;;7.28;;
33279;SDS011;20403;43.114;12.434;2023-08-20T09:01:30;10.48;;;7.57;;
33279;SDS011;20403;43.114;12.434;2023-08-20T09:03:56;15.20;;;8.20;;
33279;SDS011;20403;43.114;12.434;2023-08-20T09:06:22;8.98;;;7.30;;
33279;SDS011;20403;43.114;12.434;2023-08-20T09:08:47;10.43;;;7.68;;
33279;SDS011;20403;43.114;12.434;2023-08-20T09:11:12;10.55;;;7.10;;
33279;SDS011;20403;43.114;12.434;2023-08-20T09:13:39;7.70;;;6.90;;
33279;SDS011;20403;43.114;12.434;2023-08-20T09:16:06;7.80;;;6.85;;
33279;SDS011;20403;43.114;12.434;2023-08-20T09:18:43;9.60;;;6.75;;
33279;SDS011;20403;43.114;12.434;2023-08-20T09:21:10;10.38;;;7.10;;
33279;SDS011;20403;43.114;12.434;2023-08-20T09:23:37;10.05;;;7.03;;
33279;SDS011;20403;43.114;12.434;2023-08-20T09:26:03;9.27;;;6.70;;
33279;SDS011;20403;43.114;12.434;2023-08-20T09:28:43;9.88;;;6.97;;
33279;SDS011;20403;43.114;12.434;2023-08-20T09:31:10;9.15;;;6.30;;
33279;SDS011;20403;43.114;12.434;2023-08-20T09:33:36;6.82;;;6.13;;
33279;SDS011;20403;43.114;12.434;2023-08-20T09:36:04;12.38;;;6.75;;
33279;SDS011;20403;43.114;12.434;2023-08-20T09:38:36;9.55;;;6.47;;
33279;SDS011;20403;43.114;12.434;2023-08-20T09:41:04;7.68;;;6.53;;
33279;SDS011;20403;43.114;12.434;2023-08-20T09:43:32;9.45;;;6.25;;
33279;SDS011;20403;43.114;12.434;2023-08-20T09:45:58;11.77;;;6.43;;
33279;SDS011;20403;43.114;12.434;2023-08-20T09:48:28;6.95;;;5.80;;
33279;SDS011;20403;43.114;12.434;2023-08-20T09:51:00;12.68;;;6.60;;
33279;SDS011;20403;43.114;12.434;2023-08-20T09:56:37;7.90;;;6.25;;
33279;SDS011;20403;43.114;12.434;2023-08-20T09:59:04;9.93;;;6.25;;
33279;SDS011;20403;43.114;12.434;2023-08-20T10:01:29;8.77;;;6.07;;
33279;SDS011;20403;43.114;12.434;2023-08-20T10:03:55;11.73;;;6.05;;
33279;SDS011;20403;43.114;12.434;2023-08-20T10:06:21;8.80;;;5.55;;
33279;SDS011;20403;43.114;12.434;2023-08-20T10:08:48;8.98;;;5.93;;
33279;SDS011;20403;43.114;12.434;2023-08-20T10:11:16;5.63;;;4.95;;
33279;SDS011;20403;43.114;12.434;2023-08-20T10:13:41;8.18;;;5.20;;
33279;SDS011;20403;43.114;12.434;2023-08-20T10:16:07;10.98;;;5.43;;
33279;SDS011;20403;43.114;12.434;2023-08-20T10:18:34;6.43;;;5.20;;
33279;SDS011;20403;43.114;12.434;2023-08-20T10:21:00;9.52;;;5.50;;
33279;SDS011;20403;43.114;12.434;2023-08-20T10:23:26;6.85;;;5.18;;
33279;SDS011;20403;43.114;12.434;2023-08-20T10:25:52;8.02;;;5.07;;
33279;SDS011;20403;43.114;12.434;2023-08-20T10:28:27;8.65;;;5.25;;
33279;SDS011;20403;43.114;12.434;2023-08-20T10:33:28;8.63;;;5.13;;
33279;SDS011;20403;43.114;12.434;2023-08-20T10:35:53;7.35;;;5.55;;
33279;SDS011;20403;43.114;12.434;2023-08-20T10:38:18;10.75;;;4.95;;
33279;SDS011;20403;43.114;12.434;2023-08-20T10:40:48;8.48;;;5.15;;
33279;SDS011;20403;43.114;12.434;2023-08-20T10:43:30;12.82;;;5.65;;
33279;SDS011;20403;43.114;12.434;2023-08-20T10:46:18;6.43;;;5.13;;
33279;SDS011;20403;43.114;12.434;2023-08-20T10:51:24;8.57;;;5.15;;
33279;SDS011;20403;43.114;12.434;2023-08-20T10:56:26;7.10;;;4.72;;
33279;SDS011;20403;43.114;12.434;2023-08-20T10:59:13;6.40;;;4.97;;
33279;SDS011;20403;43.114;12.434;2023-08-20T11:01:42;7.75;;;4.70;;
33279;SDS011;20403;43.114;12.434;2023-08-20T11:04:15;5.10;;;4.55;;
33279;SDS011;20403;43.114;12.434;2023-08-20T11:09:09;7.45;;;4.75;;
33279;SDS011;20403;43.114;12.434;2023-08-20T11:11:36;12.00;;;5.20;;
33279;SDS011;20403;43.114;12.434;2023-08-20T11:14:04;6.55;;;4.82;;
33279;SDS011;20403;43.114;12.434;2023-08-20T11:16:32;5.20;;;4.65;;
33279;SDS011;20403;43.114;12.434;2023-08-20T11:18:58;7.00;;;5.28;;
33279;SDS011;20403;43.114;12.434;2023-08-20T11:21:23;5.60;;;5.00;;
33279;SDS011;20403;43.114;12.434;2023-08-20T11:23:49;6.00;;;4.90;;
33279;SDS011;20403;43.114;12.434;2023-08-20T11:26:14;5.70;;;4.30;;
33279;SDS011;20403;43.114;12.434;2023-08-20T11:28:44;9.77;;;4.82;;
33279;SDS011;20403;43.114;12.434;2023-08-20T11:31:11;9.48;;;5.07;;
33279;SDS011;20403;43.114;12.434;2023-08-20T11:33:36;12.13;;;4.97;;
33279;SDS011;20403;43.114;12.434;2023-08-20T11:36:02;9.98;;;5.03;;
33279;SDS011;20403;43.114;12.434;2023-08-20T11:38:28;8.50;;;4.72;;
33279;SDS011;20403;43.114;12.434;2023-08-20T11:40:55;6.32;;;5.18;;
33279;SDS011;20403;43.114;12.434;2023-08-20T11:43:22;7.80;;;4.55;;
33279;SDS011;20403;43.114;12.434;2023-08-20T11:45:48;10.88;;;5.55;;
33279;SDS011;20403;43.114;12.434;2023-08-20T11:48:14;8.18;;;4.90;;
33279;SDS011;20403;43.114;12.434;2023-08-20T11:50:41;6.70;;;4.80;;
33279;SDS011;20403;43.114;12.434;2023-08-20T11:53:08;7.60;;;5.03;;
33279;SDS011;20403;43.114;12.434;2023-08-20T11:55:35;5.72;;;4.85;;
33279;SDS011;20403;43.114;12.434;2023-08-20T11:58:02;7.50;;;4.82;;
33279;SDS011;20403;43.114;12.434;2023-08-20T14:15:27;6.65;;;5.30;;
33279;SDS011;20403;43.114;12.434;2023-08-20T14:17:53;9.63;;;5.20;;
33279;SDS011;20403;43.114;12.434;2023-08-20T14:20:19;6.30;;;5.45;;
33279;SDS011;20403;43.114;12.434;2023-08-20T14:22:44;9.27;;;6.07;;
33279;SDS011;20403;43.114;12.434;2023-08-20T14:25:09;7.25;;;5.80;;
33279;SDS011;20403;43.114;12.434;2023-08-20T14:27:35;6.90;;;5.75;;
33279;SDS011;20403;43.114;12.434;2023-08-20T14:30:00;9.75;;;5.95;;
33279;SDS011;20403;43.114;12.434;2023-08-20T14:32:26;10.48;;;5.57;;
33279;SDS011;20403;43.114;12.434;2023-08-20T14:34:51;14.55;;;6.05;;
33279;SDS011;20403;43.114;12.434;2023-08-20T14:37:17;10.95;;;6.18;;
33279;SDS011;20403;43.114;12.434;2023-08-20T14:39:42;8.27;;;5.75;;
33279;SDS011;20403;43.114;12.434;2023-08-20T14:42:07;13.40;;;5.72;;
33279;SDS011;20403;43.114;12.434;2023-08-20T14:44:33;6.78;;;5.38;;
33279;SDS011;20403;43.114;12.434;2023-08-20T14:46:58;9.07;;;6.05;;
33279;SDS011;20403;43.114;12.434;2023-08-20T14:49:24;7.97;;;6.15;;
33279;SDS011;20403;43.114;12.434;2023-08-20T14:51:50;10.68;;;6.60;;
33279;SDS011;20403;43.114;12.434;2023-08-20T14:54:15;7.03;;;5.53;;
33279;SDS011;20403;43.114;12.434;2023-08-20T14:56:40;7.63;;;5.47;;
33279;SDS011;20403;43.114;12.434;2023-08-20T14:59:06;6.70;;;5.97;;
33279;SDS011;20403;43.114;12.434;2023-08-20T15:01:31;8.35;;;5.90;;
33279;SDS011;20403;43.114;12.434;2023-08-20T15:03:56;8.30;;;6.63;;
33279;SDS011;20403;43.114;12.434;2023-08-20T15:06:22;8.50;;;6.80;;
33279;SDS011;20403;43.114;12.434;2023-08-20T15:08:50;7.85;;;6.55;;
33279;SDS011;20403;43.114;12.434;2023-08-20T15:11:15;9.73;;;6.80;;
33279;SDS011;20403;43.114;12.434;2023-08-20T15:13:40;16.27;;;6.43;;
33279;SDS011;20403;43.114;12.434;2023-08-20T15:16:06;9.32;;;6.55;;
33279;SDS011;20403;43.114;12.434;2023-08-20T15:18:31;9.25;;;5.97;;
33279;SDS011;20403;43.114;12.434;2023-08-20T15:20:57;7.85;;;5.97;;
33279;SDS011;20403;43.114;12.434;2023-08-20T15:23:24;7.95;;;6.28;;
33279;SDS011;20403;43.114;12.434;2023-08-20T15:25:54;9.95;;;6.40;;
33279;SDS011;20403;43.114;12.434;2023-08-20T15:28:24;10.88;;;6.45;;
33279;SDS011;20403;43.114;12.434;2023-08-20T15:30:50;9.07;;;7.05;;
33279;SDS011;20403;43.114;12.434;2023-08-20T15:33:16;8.05;;;6.43;;
33279;SDS011;20403;43.114;12.434;2023-08-20T15:35:42;9.65;;;6.25;;
33279;SDS011;20403;43.114;12.434;2023-08-20T15:38:08;7.15;;;5.88;;
33279;SDS011;20403;43.114;12.434;2023-08-20T15:40:33;8.05;;;6.13;;
33279;SDS011;20403;43.114;12.434;2023-08-20T15:42:58;7.82;;;6.72;;
33279;SDS011;20403;43.114;12.434;2023-08-20T15:45:24;10.43;;;6.25;;
33279;SDS011;20403;43.114;12.434;2023-08-20T15:47:49;8.38;;;6.28;;
33279;SDS011;20403;43.114;12.434;2023-08-20T15:50:15;10.82;;;6.80;;
33279;SDS011;20403;43.114;12.434;2023-08-20T15:52:40;9.88;;;6.75;;
33279;SDS011;20403;43.114;12.434;2023-08-20T15:55:05;10.73;;;6.20;;
33279;SDS011;20403;43.114;12.434;2023-08-20T15:57:31;7.30;;;6.25;;
33279;SDS011;20403;43.114;12.434;2023-08-20T15:59:56;10.88;;;7.00;;
33279;SDS011;20403;43.114;12.434;2023-08-20T16:02:22;13.30;;;6.63;;
33279;SDS011;20403;43.114;12.434;2023-08-20T16:04:47;8.55;;;6.60;;
33279;SDS011;20403;43.114;12.434;2023-08-20T16:07:13;12.18;;;6.53;;
33279;SDS011;20403;43.114;12.434;2023-08-20T16:09:38;10.48;;;7.10;;
33279;SDS011;20403;43.114;12.434;2023-08-20T16:12:04;8.93;;;7.25;;
33279;SDS011;20403;43.114;12.434;2023-08-20T16:14:30;13.90;;;6.88;;
33279;SDS011;20403;43.114;12.434;2023-08-20T16:16:55;11.52;;;6.55;;
33279;SDS011;20403;43.114;12.434;2023-08-20T16:19:21;8.02;;;6.55;;
33279;SDS011;20403;43.114;12.434;2023-08-20T16:21:46;8.68;;;6.40;;
33279;SDS011;20403;43.114;12.434;2023-08-20T16:24:12;8.50;;;6.82;;
33279;SDS011;20403;43.114;12.434;2023-08-20T16:26:38;12.38;;;6.75;;
33279;SDS011;20403;43.114;12.434;2023-08-20T16:29:03;12.57;;;6.93;;
33279;SDS011;20403;43.114;12.434;2023-08-20T16:31:29;11.63;;;6.97;;
33279;SDS011;20403;43.114;12.434;2023-08-20T16:33:54;8.00;;;6.78;;
33279;SDS011;20403;43.114;12.434;2023-08-20T16:36:19;10.07;;;6.80;;
33279;SDS011;20403;43.114;12.434;2023-08-20T16:38:45;8.60;;;6.78;;
33279;SDS011;20403;43.114;12.434;2023-08-20T16:41:10;12.07;;;7.03;;
33279;SDS011;20403;43.114;12.434;2023-08-20T16:43:36;10.73;;;7.15;;
33279;SDS011;20403;43.114;12.434;2023-08-20T16:46:01;12.30;;;7.20;;
33279;SDS011;20403;43.114;12.434;2023-08-20T16:48:27;10.90;;;7.15;;
33279;SDS011;20403;43.114;12.434;2023-08-20T16:50:56;11.32;;;7.60;;
33279;SDS011;20403;43.114;12.434;2023-08-20T16:53:25;9.35;;;6.85;;
33279;SDS011;20403;43.114;12.434;2023-08-20T16:55:51;7.72;;;6.63;;
33279;SDS011;20403;43.114;12.434;2023-08-20T16:58:17;17.52;;;7.40;;
33279;SDS011;20403;43.114;12.434;2023-08-20T17:00:44;7.65;;;6.90;;
33279;SDS011;20403;43.114;12.434;2023-08-20T17:03:09;10.80;;;7.40;;
33279;SDS011;20403;43.114;12.434;2023-08-20T17:05:35;13.48;;;7.85;;
33279;SDS011;20403;43.114;12.434;2023-08-20T17:08:00;11.93;;;7.28;;
33279;SDS011;20403;43.114;12.434;2023-08-20T17:10:26;8.85;;;7.85;;
33279;SDS011;20403;43.114;12.434;2023-08-20T17:12:51;10.90;;;7.07;;
33279;SDS011;20403;43.114;12.434;2023-08-20T17:15:17;11.90;;;7.82;;
33279;SDS011;20403;43.114;12.434;2023-08-20T17:17:45;11.88;;;7.45;;
33279;SDS011;20403;43.114;12.434;2023-08-20T17:20:11;9.63;;;7.65;;
33279;SDS011;20403;43.114;12.434;2023-08-20T17:22:37;11.13;;;7.85;;
33279;SDS011;20403;43.114;12.434;2023-08-20T17:25:02;10.63;;;8.05;;
33279;SDS011;20403;43.114;12.434;2023-08-20T17:27:28;10.85;;;7.47;;
33279;SDS011;20403;43.114;12.434;2023-08-20T17:29:53;11.70;;;7.88;;
33279;SDS011;20403;43.114;12.434;2023-08-20T17:32:19;11.93;;;7.28;;
33279;SDS011;20403;43.114;12.434;2023-08-20T17:34:44;10.45;;;8.05;;
33279;SDS011;20403;43.114;12.434;2023-08-20T17:37:10;12.50;;;8.50;;
33279;SDS011;20403;43.114;12.434;2023-08-20T17:39:35;9.63;;;7.97;;
33279;SDS011;20403;43.114;12.434;2023-08-20T17:42:01;11.63;;;8.32;;
33279;SDS011;20403;43.114;12.434;2023-08-20T17:44:26;10.45;;;8.48;;
33279;SDS011;20403;43.114;12.434;2023-08-20T17:46:51;12.02;;;8.52;;
33279;SDS011;20403;43.114;12.434;2023-08-20T17:49:17;13.52;;;8.38;;
33279;SDS011;20403;43.114;12.434;2023-08-20T17:51:42;15.80;;;8.70;;
33279;SDS011;20403;43.114;12.434;2023-08-20T17:54:08;13.60;;;8.52;;
33279;SDS011;20403;43.114;12.434;2023-08-20T17:56:33;11.95;;;8.70;;
33279;SDS011;20403;43.114;12.434;2023-08-20T17:58:59;14.13;;;8.80;;
33279;SDS011;20403;43.114;12.434;2023-08-20T18:01:24;11.88;;;9.32;;
33279;SDS011;20403;43.114;12.434;2023-08-20T18:03:50;16.42;;;9.20;;
33279;SDS011;20403;43.114;12.434;2023-08-20T18:06:16;10.43;;;8.93;;
33279;SDS011;20403;43.114;12.434;2023-08-20T18:08:42;11.13;;;8.88;;
33279;SDS011;20403;43.114;12.434;2023-08-20T18:11:08;11.25;;;8.82;;
33279;SDS011;20403;43.114;12.434;2023-08-20T18:13:33;12.43;;;8.45;;
33279;SDS011;20403;43.114;12.434;2023-08-20T18:15:59;9.93;;;8.90;;
33279;SDS011;20403;43.114;12.434;2023-08-20T18:18:25;10.25;;;9.10;;
33279;SDS011;20403;43.114;12.434;2023-08-20T18:20:50;11.82;;;8.82;;
33279;SDS011;20403;43.114;12.434;2023-08-20T18:23:15;11.38;;;8.75;;
33279;SDS011;20403;43.114;12.434;2023-08-20T18:25:44;13.75;;;8.90;;
33279;SDS011;20403;43.114;12.434;2023-08-20T18:28:09;11.50;;;9.25;;
33279;SDS011;20403;43.114;12.434;2023-08-20T18:30:35;12.88;;;9.43;;
33279;SDS011;20403;43.114;12.434;2023-08-20T18:33:01;13.68;;;9.52;;
33279;SDS011;20403;43.114;12.434;2023-08-20T18:35:28;11.82;;;9.70;;
33279;SDS011;20403;43.114;12.434;2023-08-20T18:37:54;12.48;;;9.30;;
33279;SDS011;20403;43.114;12.434;2023-08-20T18:40:19;11.25;;;9.88;;
33279;SDS011;20403;43.114;12.434;2023-08-20T18:42:45;11.68;;;9.10;;
33279;SDS011;20403;43.114;12.434;2023-08-20T18:45:10;17.17;;;9.30;;
33279;SDS011;20403;43.114;12.434;2023-08-20T18:47:36;28.73;;;10.60;;
33279;SDS011;20403;43.114;12.434;2023-08-20T18:50:01;20.33;;;10.52;;
33279;SDS011;20403;43.114;12.434;2023-08-20T18:52:27;25.25;;;9.82;;
33279;SDS011;20403;43.114;12.434;2023-08-20T18:54:53;33.63;;;10.40;;
33279;SDS011;20403;43.114;12.434;2023-08-20T18:57:18;26.45;;;10.68;;
33279;SDS011;20403;43.114;12.434;2023-08-20T18:59:44;14.18;;;10.60;;
33279;SDS011;20403;43.114;12.434;2023-08-20T19:02:10;21.42;;;11.35;;
33279;SDS011;20403;43.114;12.434;2023-08-20T19:04:36;21.95;;;10.50;;
33279;SDS011;20403;43.114;12.434;2023-08-20T19:07:01;17.05;;;10.73;;
33279;SDS011;20403;43.114;12.434;2023-08-20T19:09:27;18.85;;;10.80;;
33279;SDS011;20403;43.114;12.434;2023-08-20T19:11:53;17.77;;;10.95;;
33279;SDS011;20403;43.114;12.434;2023-08-20T19:14:21;15.43;;;11.30;;
33279;SDS011;20403;43.114;12.434;2023-08-20T19:16:47;13.23;;;10.68;;
33279;SDS011;20403;43.114;12.434;2023-08-20T19:19:12;21.65;;;10.40;;
33279;SDS011;20403;43.114;12.434;2023-08-20T19:21:37;18.60;;;11.93;;
33279;SDS011;20403;43.114;12.434;2023-08-20T19:24:03;18.98;;;11.57;;
33279;SDS011;20403;43.114;12.434;2023-08-20T19:26:30;15.05;;;11.48;;
33279;SDS011;20403;43.114;12.434;2023-08-20T19:28:56;21.10;;;12.10;;
33279;SDS011;20403;43.114;12.434;2023-08-20T19:31:21;18.67;;;11.45;;
33279;SDS011;20403;43.114;12.434;2023-08-20T19:33:47;20.65;;;12.07;;
33279;SDS011;20403;43.114;12.434;2023-08-20T19:36:13;18.50;;;12.20;;
33279;SDS011;20403;43.114;12.434;2023-08-20T19:38:39;23.90;;;11.90;;
33279;SDS011;20403;43.114;12.434;2023-08-20T19:41:04;16.90;;;11.95;;
33279;SDS011;20403;43.114;12.434;2023-08-20T19:43:29;16.27;;;11.43;;
33279;SDS011;20403;43.114;12.434;2023-08-20T19:45:55;19.33;;;12.45;;
33279;SDS011;20403;43.114;12.434;2023-08-20T19:48:20;16.58;;;12.38;;
33279;SDS011;20403;43.114;12.434;2023-08-20T19:50:46;18.58;;;12.48;;
33279;SDS011;20403;43.114;12.434;2023-08-20T19:53:12;15.68;;;11.93;;
33279;SDS011;20403;43.114;12.434;2023-08-20T19:55:37;17.92;;;12.57;;
33279;SDS011;20403;43.114;12.434;2023-08-20T19:58:03;13.35;;;11.18;;
33279;SDS011;20403;43.114;12.434;2023-08-20T20:00:30;13.55;;;12.10;;
33279;SDS011;20403;43.114;12.434;2023-08-20T20:02:55;14.43;;;12.82;;
33279;SDS011;20403;43.114;12.434;2023-08-20T20:05:22;15.48;;;12.65;;
33279;SDS011;20403;43.114;12.434;2023-08-20T20:07:48;14.77;;;11.70;;
33279;SDS011;20403;43.114;12.434;2023-08-20T20:10:14;14.95;;;11.50;;
33279;SDS011;20403;43.114;12.434;2023-08-20T20:12:40;13.82;;;12.40;;
33279;SDS011;20403;43.114;12.434;2023-08-20T20:15:06;12.90;;;11.60;;
33279;SDS011;20403;43.114;12.434;2023-08-20T20:17:33;15.13;;;12.75;;
33279;SDS011;20403;43.114;12.434;2023-08-20T20:19:59;14.25;;;11.70;;
33279;SDS011;20403;43.114;12.434;2023-08-20T20:22:25;17.52;;;12.98;;
33279;SDS011;20403;43.114;12.434;2023-08-20T20:24:53;17.92;;;12.07;;
33279;SDS011;20403;43.114;12.434;2023-08-20T20:27:20;15.02;;;11.68;;
33279;SDS011;20403;43.114;12.434;2023-08-20T20:29:45;15.63;;;12.30;;
33279;SDS011;20403;43.114;12.434;2023-08-20T20:32:11;14.63;;;12.65;;
33279;SDS011;20403;43.114;12.434;2023-08-20T20:34:36;14.20;;;12.70;;
33279;SDS011;20403;43.114;12.434;2023-08-20T20:37:02;17.13;;;11.98;;
33279;SDS011;20403;43.114;12.434;2023-08-20T20:39:27;15.82;;;12.90;;
33279;SDS011;20403;43.114;12.434;2023-08-20T20:41:54;15.63;;;12.73;;
33279;SDS011;20403;43.114;12.434;2023-08-20T20:44:20;18.42;;;12.27;;
33279;SDS011;20403;43.114;12.434;2023-08-20T20:46:45;13.77;;;12.40;;
33279;SDS011;20403;43.114;12.434;2023-08-20T20:49:10;16.67;;;13.32;;
33279;SDS011;20403;43.114;12.434;2023-08-20T20:51:36;15.73;;;12.90;;
33279;SDS011;20403;43.114;12.434;2023-08-20T20:54:01;14.77;;;12.63;;
33279;SDS011;20403;43.114;12.434;2023-08-20T20:56:27;15.32;;;12.70;;
33279;SDS011;20403;43.114;12.434;2023-08-20T20:58:54;15.27;;;13.15;;
33279;SDS011;20403;43.114;12.434;2023-08-20T21:01:19;16.95;;;13.07;;
33279;SDS011;20403;43.114;12.434;2023-08-20T21:03:46;17.95;;;13.82;;
33279;SDS011;20403;43.114;12.434;2023-08-20T21:06:12;19.63;;;13.00;;
33279;SDS011;20403;43.114;12.434;2023-08-20T21:08:37;16.65;;;13.27;;
33279;SDS011;20403;43.114;12.434;2023-08-20T21:11:03;14.90;;;12.88;;
33279;SDS011;20403;43.114;12.434;2023-08-20T21:13:28;19.95;;;12.73;;
33279;SDS011;20403;43.114;12.434;2023-08-20T21:15:54;17.90;;;12.80;;
33279;SDS011;20403;43.114;12.434;2023-08-20T21:18:19;15.48;;;13.40;;
33279;SDS011;20403;43.114;12.434;2023-08-20T21:20:45;20.42;;;13.90;;
33279;SDS011;20403;43.114;12.434;2023-08-20T21:23:11;16.88;;;13.00;;
33279;SDS011;20403;43.114;12.434;2023-08-20T21:25:36;20.95;;;13.15;;
33279;SDS011;20403;43.114;12.434;2023-08-20T21:28:02;18.55;;;13.77;;
33279;SDS011;20403;43.114;12.434;2023-08-20T21:30:28;18.48;;;13.23;;